sensor_id;sensor_type;location;lat;lon;timestamp;temperature;humidity
70606;DHT22;58173;52.500;5.494;2023-03-09T00:01:29;4.20;72.40
70606;DHT22;58173;52.500;5.494;2023-03-09T00:03:57;4.20;72.40
70606;DHT22;58173;52.500;5.494;2023-03-09T00:06:25;4.20;72.50
70606;DHT22;58173;52.500;5.494;2023-03-09T00:08:52;4.10;72.60
70606;DHT22;58173;52.500;5.494;2023-03-09T00:11:19;4.10;72.60
70606;DHT22;58173;52.500;5.494;2023-03-09T00:13:47;4.10;72.80
70606;DHT22;58173;52.500;5.494;2023-03-09T00:16:21;4.10;72.80
70606;DHT22;58173;52.500;5.494;2023-03-09T00:18:49;4.10;72.80
70606;DHT22;58173;52.500;5.494;2023-03-09T00:21:19;4.20;73.10
70606;DHT22;58173;52.500;5.494;2023-03-09T00:24:08;4.20;72.80
70606;DHT22;58173;52.500;5.494;2023-03-09T00:26:38;4.20;72.70
70606;DHT22;58173;52.500;5.494;2023-03-09T00:29:11;4.20;72.60
70606;DHT22;58173;52.500;5.494;2023-03-09T00:31:39;4.20;72.70
70606;DHT22;58173;52.500;5.494;2023-03-09T00:34:07;4.20;72.60
70606;DHT22;58173;52.500;5.494;2023-03-09T00:36:35;4.20;73.60
70606;DHT22;58173;52.500;5.494;2023-03-09T00:39:03;4.10;72.80
70606;DHT22;58173;52.500;5.494;2023-03-09T00:41:30;4.10;73.00
70606;DHT22;58173;52.500;5.494;2023-03-09T00:43:59;4.20;73.10
70606;DHT22;58173;52.500;5.494;2023-03-09T00:46:27;4.10;72.90
70606;DHT22;58173;52.500;5.494;2023-03-09T00:48:54;4.10;73.00
70606;DHT22;58173;52.500;5.494;2023-03-09T00:51:22;4.10;73.00
70606;DHT22;58173;52.500;5.494;2023-03-09T00:53:49;4.00;73.00
70606;DHT22;58173;52.500;5.494;2023-03-09T00:56:19;4.00;73.00
70606;DHT22;58173;52.500;5.494;2023-03-09T00:58:46;4.00;72.90
70606;DHT22;58173;52.500;5.494;2023-03-09T01:01:15;4.00;72.90
70606;DHT22;58173;52.500;5.494;2023-03-09T01:03:42;4.00;73.00
70606;DHT22;58173;52.500;5.494;2023-03-09T01:06:09;3.90;73.00
70606;DHT22;58173;52.500;5.494;2023-03-09T01:08:37;4.00;73.10
70606;DHT22;58173;52.500;5.494;2023-03-09T01:11:12;4.00;73.20
70606;DHT22;58173;52.500;5.494;2023-03-09T01:13:40;4.00;72.90
70606;DHT22;58173;52.500;5.494;2023-03-09T01:16:08;4.10;72.80
70606;DHT22;58173;52.500;5.494;2023-03-09T01:18:37;4.00;72.60
70606;DHT22;58173;52.500;5.494;2023-03-09T01:21:04;4.00;72.50
70606;DHT22;58173;52.500;5.494;2023-03-09T01:23:35;4.00;72.30
70606;DHT22;58173;52.500;5.494;2023-03-09T01:26:02;4.00;72.20
70606;DHT22;58173;52.500;5.494;2023-03-09T01:28:29;4.00;72.30
70606;DHT22;58173;52.500;5.494;2023-03-09T01:30:56;3.90;72.30
70606;DHT22;58173;52.500;5.494;2023-03-09T01:33:23;3.90;72.40
70606;DHT22;58173;52.500;5.494;2023-03-09T01:35:51;3.90;72.40
70606;DHT22;58173;52.500;5.494;2023-03-09T01:38:17;3.80;72.40
70606;DHT22;58173;52.500;5.494;2023-03-09T01:40:46;3.80;72.50
70606;DHT22;58173;52.500;5.494;2023-03-09T01:51:19;3.80;72.40
70606;DHT22;58173;52.500;5.494;2023-03-09T01:53:48;3.80;72.30
70606;DHT22;58173;52.500;5.494;2023-03-09T01:56:17;3.90;72.10
70606;DHT22;58173;52.500;5.494;2023-03-09T01:58:45;3.90;72.10
70606;DHT22;58173;52.500;5.494;2023-03-09T02:01:15;3.80;72.00
70606;DHT22;58173;52.500;5.494;2023-03-09T02:03:46;3.90;73.10
70606;DHT22;58173;52.500;5.494;2023-03-09T02:06:19;3.90;72.10
70606;DHT22;58173;52.500;5.494;2023-03-09T02:09:19;3.90;72.00
70606;DHT22;58173;52.500;5.494;2023-03-09T02:11:48;3.90;72.20
70606;DHT22;58173;52.500;5.494;2023-03-09T02:14:15;3.90;72.20
70606;DHT22;58173;52.500;5.494;2023-03-09T02:16:42;3.90;72.40
70606;DHT22;58173;52.500;5.494;2023-03-09T02:19:16;3.80;72.50
70606;DHT22;58173;52.500;5.494;2023-03-09T02:21:52;3.80;72.70
70606;DHT22;58173;52.500;5.494;2023-03-09T02:24:38;3.80;72.90
70606;DHT22;58173;52.500;5.494;2023-03-09T02:27:10;3.80;73.80
70606;DHT22;58173;52.500;5.494;2023-03-09T02:29:37;3.80;72.90
70606;DHT22;58173;52.500;5.494;2023-03-09T02:32:04;3.80;73.00
70606;DHT22;58173;52.500;5.494;2023-03-09T02:34:31;3.80;73.10
70606;DHT22;58173;52.500;5.494;2023-03-09T02:36:58;3.80;73.20
70606;DHT22;58173;52.500;5.494;2023-03-09T02:39:38;3.70;73.40
70606;DHT22;58173;52.500;5.494;2023-03-09T02:42:09;3.70;73.60
70606;DHT22;58173;52.500;5.494;2023-03-09T02:44:37;3.70;73.50
70606;DHT22;58173;52.500;5.494;2023-03-09T02:47:10;3.70;73.60
70606;DHT22;58173;52.500;5.494;2023-03-09T02:49:39;3.70;73.60
70606;DHT22;58173;52.500;5.494;2023-03-09T02:52:06;3.70;73.70
70606;DHT22;58173;52.500;5.494;2023-03-09T02:54:33;3.70;73.70
70606;DHT22;58173;52.500;5.494;2023-03-09T02:57:00;3.70;73.70
70606;DHT22;58173;52.500;5.494;2023-03-09T02:59:27;3.70;73.70
70606;DHT22;58173;52.500;5.494;2023-03-09T03:01:54;3.70;73.80
70606;DHT22;58173;52.500;5.494;2023-03-09T03:04:21;3.70;73.90
70606;DHT22;58173;52.500;5.494;2023-03-09T03:06:50;3.70;74.00
70606;DHT22;58173;52.500;5.494;2023-03-09T03:09:17;3.70;74.00
70606;DHT22;58173;52.500;5.494;2023-03-09T03:11:44;3.60;74.10
70606;DHT22;58173;52.500;5.494;2023-03-09T03:14:11;3.60;74.20
70606;DHT22;58173;52.500;5.494;2023-03-09T03:16:38;3.60;74.30
70606;DHT22;58173;52.500;5.494;2023-03-09T03:19:06;3.60;74.30
70606;DHT22;58173;52.500;5.494;2023-03-09T03:21:36;3.60;74.40
70606;DHT22;58173;52.500;5.494;2023-03-09T03:24:03;3.60;74.40
70606;DHT22;58173;52.500;5.494;2023-03-09T03:26:33;3.60;74.30
70606;DHT22;58173;52.500;5.494;2023-03-09T03:29:05;3.60;74.40
70606;DHT22;58173;52.500;5.494;2023-03-09T03:31:32;3.70;74.50
70606;DHT22;58173;52.500;5.494;2023-03-09T03:33:59;3.70;74.30
70606;DHT22;58173;52.500;5.494;2023-03-09T03:36:30;3.70;74.20
70606;DHT22;58173;52.500;5.494;2023-03-09T03:38:57;3.70;74.20
70606;DHT22;58173;52.500;5.494;2023-03-09T03:41:24;3.70;74.10
70606;DHT22;58173;52.500;5.494;2023-03-09T03:43:54;3.70;74.00
70606;DHT22;58173;52.500;5.494;2023-03-09T03:46:20;3.70;74.00
70606;DHT22;58173;52.500;5.494;2023-03-09T03:48:48;3.70;74.00
70606;DHT22;58173;52.500;5.494;2023-03-09T03:51:17;3.70;74.00
70606;DHT22;58173;52.500;5.494;2023-03-09T03:53:47;3.70;73.90
70606;DHT22;58173;52.500;5.494;2023-03-09T03:56:14;3.70;74.10
70606;DHT22;58173;52.500;5.494;2023-03-09T03:58:43;3.70;74.00
70606;DHT22;58173;52.500;5.494;2023-03-09T04:01:12;3.70;74.00
70606;DHT22;58173;52.500;5.494;2023-03-09T04:03:39;3.70;74.00
70606;DHT22;58173;52.500;5.494;2023-03-09T04:06:06;3.70;74.00
70606;DHT22;58173;52.500;5.494;2023-03-09T04:08:34;3.70;74.00
70606;DHT22;58173;52.500;5.494;2023-03-09T04:11:05;3.70;74.00
70606;DHT22;58173;52.500;5.494;2023-03-09T04:13:33;3.70;74.00
70606;DHT22;58173;52.500;5.494;2023-03-09T04:16:00;3.70;74.00
70606;DHT22;58173;52.500;5.494;2023-03-09T04:18:28;3.70;73.80
70606;DHT22;58173;52.500;5.494;2023-03-09T04:20:54;3.70;73.80
70606;DHT22;58173;52.500;5.494;2023-03-09T04:23:21;3.70;73.90
70606;DHT22;58173;52.500;5.494;2023-03-09T04:26:00;3.70;74.00
70606;DHT22;58173;52.500;5.494;2023-03-09T04:28:36;3.70;74.10
70606;DHT22;58173;52.500;5.494;2023-03-09T04:31:06;3.70;74.30
70606;DHT22;58173;52.500;5.494;2023-03-09T04:33:34;3.60;74.20
70606;DHT22;58173;52.500;5.494;2023-03-09T04:36:01;3.70;74.20
70606;DHT22;58173;52.500;5.494;2023-03-09T04:38:32;3.70;74.10
70606;DHT22;58173;52.500;5.494;2023-03-09T04:40:59;3.60;74.10
70606;DHT22;58173;52.500;5.494;2023-03-09T04:43:27;3.60;74.20
70606;DHT22;58173;52.500;5.494;2023-03-09T04:45:54;3.60;75.30
70606;DHT22;58173;52.500;5.494;2023-03-09T04:48:21;3.60;74.70
70606;DHT22;58173;52.500;5.494;2023-03-09T04:50:48;3.60;74.70
70606;DHT22;58173;52.500;5.494;2023-03-09T04:53:15;3.50;74.70
70606;DHT22;58173;52.500;5.494;2023-03-09T04:55:43;3.60;74.70
70606;DHT22;58173;52.500;5.494;2023-03-09T04:58:12;3.60;74.70
70606;DHT22;58173;52.500;5.494;2023-03-09T05:00:39;3.50;74.60
70606;DHT22;58173;52.500;5.494;2023-03-09T05:03:09;3.50;74.70
70606;DHT22;58173;52.500;5.494;2023-03-09T05:05:41;3.50;74.90
70606;DHT22;58173;52.500;5.494;2023-03-09T05:08:08;3.50;75.00
70606;DHT22;58173;52.500;5.494;2023-03-09T05:10:36;3.40;75.10
70606;DHT22;58173;52.500;5.494;2023-03-09T05:13:03;3.40;75.30
70606;DHT22;58173;52.500;5.494;2023-03-09T05:15:31;3.40;75.40
70606;DHT22;58173;52.500;5.494;2023-03-09T05:17:58;3.40;75.50
70606;DHT22;58173;52.500;5.494;2023-03-09T05:20:28;3.40;75.50
70606;DHT22;58173;52.500;5.494;2023-03-09T05:23:00;3.40;75.60
70606;DHT22;58173;52.500;5.494;2023-03-09T05:25:28;3.40;75.50
70606;DHT22;58173;52.500;5.494;2023-03-09T05:27:56;3.30;75.60
70606;DHT22;58173;52.500;5.494;2023-03-09T05:30:25;3.30;75.70
70606;DHT22;58173;52.500;5.494;2023-03-09T05:32:53;3.30;75.70
70606;DHT22;58173;52.500;5.494;2023-03-09T05:35:22;3.30;75.80
70606;DHT22;58173;52.500;5.494;2023-03-09T05:37:49;3.30;75.90
70606;DHT22;58173;52.500;5.494;2023-03-09T05:40:20;3.20;75.90
70606;DHT22;58173;52.500;5.494;2023-03-09T05:42:53;3.20;76.00
70606;DHT22;58173;52.500;5.494;2023-03-09T05:45:20;3.20;76.20
70606;DHT22;58173;52.500;5.494;2023-03-09T05:47:47;3.20;76.30
70606;DHT22;58173;52.500;5.494;2023-03-09T05:50:14;3.20;77.30
70606;DHT22;58173;52.500;5.494;2023-03-09T05:52:41;3.20;76.40
70606;DHT22;58173;52.500;5.494;2023-03-09T05:55:09;3.20;76.40
70606;DHT22;58173;52.500;5.494;2023-03-09T05:57:41;3.20;76.50
70606;DHT22;58173;52.500;5.494;2023-03-09T06:00:08;3.20;76.70
70606;DHT22;58173;52.500;5.494;2023-03-09T06:02:39;3.10;76.70
70606;DHT22;58173;52.500;5.494;2023-03-09T06:05:11;3.10;76.80
70606;DHT22;58173;52.500;5.494;2023-03-09T06:07:38;3.10;76.80
70606;DHT22;58173;52.500;5.494;2023-03-09T06:10:05;3.20;77.00
70606;DHT22;58173;52.500;5.494;2023-03-09T06:12:32;3.20;77.00
70606;DHT22;58173;52.500;5.494;2023-03-09T06:14:59;3.20;77.00
70606;DHT22;58173;52.500;5.494;2023-03-09T06:17:28;3.20;77.10
70606;DHT22;58173;52.500;5.494;2023-03-09T06:19:57;3.20;77.10
70606;DHT22;58173;52.500;5.494;2023-03-09T06:22:24;3.20;77.10
70606;DHT22;58173;52.500;5.494;2023-03-09T06:24:51;3.30;77.10
70606;DHT22;58173;52.500;5.494;2023-03-09T06:27:17;3.30;77.10
70606;DHT22;58173;52.500;5.494;2023-03-09T06:29:45;3.30;77.10
70606;DHT22;58173;52.500;5.494;2023-03-09T06:32:12;3.30;77.10
70606;DHT22;58173;52.500;5.494;2023-03-09T06:34:39;3.30;77.10
70606;DHT22;58173;52.500;5.494;2023-03-09T06:37:10;3.40;77.10
70606;DHT22;58173;52.500;5.494;2023-03-09T06:39:37;3.40;77.00
70606;DHT22;58173;52.500;5.494;2023-03-09T06:42:04;3.40;76.70
70606;DHT22;58173;52.500;5.494;2023-03-09T06:44:50;3.50;76.70
70606;DHT22;58173;52.500;5.494;2023-03-09T06:47:19;3.50;76.50
70606;DHT22;58173;52.500;5.494;2023-03-09T06:49:50;3.50;76.60
70606;DHT22;58173;52.500;5.494;2023-03-09T06:52:20;3.50;76.40
70606;DHT22;58173;52.500;5.494;2023-03-09T06:54:47;3.50;76.30
70606;DHT22;58173;52.500;5.494;2023-03-09T06:57:18;3.50;76.30
70606;DHT22;58173;52.500;5.494;2023-03-09T06:59:45;3.50;76.30
70606;DHT22;58173;52.500;5.494;2023-03-09T07:02:14;3.50;76.40
70606;DHT22;58173;52.500;5.494;2023-03-09T07:04:41;3.50;76.40
70606;DHT22;58173;52.500;5.494;2023-03-09T07:07:08;3.50;76.50
70606;DHT22;58173;52.500;5.494;2023-03-09T07:09:35;3.50;76.50
70606;DHT22;58173;52.500;5.494;2023-03-09T07:12:01;3.60;76.60
70606;DHT22;58173;52.500;5.494;2023-03-09T07:14:28;3.60;76.60
70606;DHT22;58173;52.500;5.494;2023-03-09T07:16:56;3.60;76.70
70606;DHT22;58173;52.500;5.494;2023-03-09T07:19:23;3.60;76.70
70606;DHT22;58173;52.500;5.494;2023-03-09T07:21:50;3.60;76.70
70606;DHT22;58173;52.500;5.494;2023-03-09T07:24:17;3.70;76.80
70606;DHT22;58173;52.500;5.494;2023-03-09T07:26:45;3.70;76.70
70606;DHT22;58173;52.500;5.494;2023-03-09T07:29:12;3.70;76.60
70606;DHT22;58173;52.500;5.494;2023-03-09T07:31:39;3.70;76.50
70606;DHT22;58173;52.500;5.494;2023-03-09T07:34:06;3.80;76.50
70606;DHT22;58173;52.500;5.494;2023-03-09T07:36:33;3.80;76.40
70606;DHT22;58173;52.500;5.494;2023-03-09T07:39:00;3.90;76.40
70606;DHT22;58173;52.500;5.494;2023-03-09T07:41:27;3.90;76.30
70606;DHT22;58173;52.500;5.494;2023-03-09T07:43:53;3.90;76.10
70606;DHT22;58173;52.500;5.494;2023-03-09T07:46:24;3.90;76.00
70606;DHT22;58173;52.500;5.494;2023-03-09T07:48:51;4.00;76.00
70606;DHT22;58173;52.500;5.494;2023-03-09T07:51:21;4.00;75.90
70606;DHT22;58173;52.500;5.494;2023-03-09T07:53:48;4.00;75.90
70606;DHT22;58173;52.500;5.494;2023-03-09T07:56:16;4.00;76.00
70606;DHT22;58173;52.500;5.494;2023-03-09T07:58:42;4.10;76.30
70606;DHT22;58173;52.500;5.494;2023-03-09T08:01:16;4.10;76.00
70606;DHT22;58173;52.500;5.494;2023-03-09T08:03:45;4.10;76.10
70606;DHT22;58173;52.500;5.494;2023-03-09T08:06:13;4.20;76.00
70606;DHT22;58173;52.500;5.494;2023-03-09T08:08:41;4.20;75.80
70606;DHT22;58173;52.500;5.494;2023-03-09T08:11:07;4.20;75.70
70606;DHT22;58173;52.500;5.494;2023-03-09T08:13:35;4.30;75.60
70606;DHT22;58173;52.500;5.494;2023-03-09T08:16:05;4.30;75.70
70606;DHT22;58173;52.500;5.494;2023-03-09T08:18:33;4.40;75.60
70606;DHT22;58173;52.500;5.494;2023-03-09T08:21:03;4.40;75.20
70606;DHT22;58173;52.500;5.494;2023-03-09T08:23:32;4.40;74.90
70606;DHT22;58173;52.500;5.494;2023-03-09T08:25:59;4.50;75.00
70606;DHT22;58173;52.500;5.494;2023-03-09T08:28:26;4.50;75.20
70606;DHT22;58173;52.500;5.494;2023-03-09T08:30:53;4.50;74.90
70606;DHT22;58173;52.500;5.494;2023-03-09T08:33:20;4.60;74.80
70606;DHT22;58173;52.500;5.494;2023-03-09T08:35:47;4.60;74.80
70606;DHT22;58173;52.500;5.494;2023-03-09T08:38:14;4.60;74.80
70606;DHT22;58173;52.500;5.494;2023-03-09T08:40:42;4.60;74.60
70606;DHT22;58173;52.500;5.494;2023-03-09T08:43:11;4.70;74.30
70606;DHT22;58173;52.500;5.494;2023-03-09T08:45:38;4.70;74.10
70606;DHT22;58173;52.500;5.494;2023-03-09T08:48:05;4.70;74.10
70606;DHT22;58173;52.500;5.494;2023-03-09T08:50:33;4.70;74.10
70606;DHT22;58173;52.500;5.494;2023-03-09T08:52:59;4.70;74.30
70606;DHT22;58173;52.500;5.494;2023-03-09T08:55:27;4.70;74.10
70606;DHT22;58173;52.500;5.494;2023-03-09T08:57:54;4.80;74.00
70606;DHT22;58173;52.500;5.494;2023-03-09T09:00:22;4.70;73.80
70606;DHT22;58173;52.500;5.494;2023-03-09T09:02:49;4.80;73.70
70606;DHT22;58173;52.500;5.494;2023-03-09T09:05:17;4.80;73.70
70606;DHT22;58173;52.500;5.494;2023-03-09T09:07:44;4.80;73.70
70606;DHT22;58173;52.500;5.494;2023-03-09T09:10:12;4.90;73.30
70606;DHT22;58173;52.500;5.494;2023-03-09T09:12:52;4.90;73.40
70606;DHT22;58173;52.500;5.494;2023-03-09T09:15:19;4.90;73.30
70606;DHT22;58173;52.500;5.494;2023-03-09T09:17:46;4.90;73.00
70606;DHT22;58173;52.500;5.494;2023-03-09T09:20:13;4.90;72.90
70606;DHT22;58173;52.500;5.494;2023-03-09T09:22:41;5.00;73.10
70606;DHT22;58173;52.500;5.494;2023-03-09T09:25:09;5.00;73.10
70606;DHT22;58173;52.500;5.494;2023-03-09T09:27:36;5.00;73.20
70606;DHT22;58173;52.500;5.494;2023-03-09T09:30:04;5.00;73.10
70606;DHT22;58173;52.500;5.494;2023-03-09T09:32:31;5.10;73.10
70606;DHT22;58173;52.500;5.494;2023-03-09T09:34:58;5.10;73.20
70606;DHT22;58173;52.500;5.494;2023-03-09T09:37:26;5.20;73.40
70606;DHT22;58173;52.500;5.494;2023-03-09T09:39:54;5.20;73.00
70606;DHT22;58173;52.500;5.494;2023-03-09T09:42:32;5.30;73.00
70606;DHT22;58173;52.500;5.494;2023-03-09T09:45:02;5.30;72.80
70606;DHT22;58173;52.500;5.494;2023-03-09T09:47:31;5.40;72.90
70606;DHT22;58173;52.500;5.494;2023-03-09T09:50:00;5.40;72.90
70606;DHT22;58173;52.500;5.494;2023-03-09T09:52:38;5.40;72.60
70606;DHT22;58173;52.500;5.494;2023-03-09T10:00:46;5.60;72.10
70606;DHT22;58173;52.500;5.494;2023-03-09T10:03:19;5.70;71.80
70606;DHT22;58173;52.500;5.494;2023-03-09T10:06:08;5.70;71.50
70606;DHT22;58173;52.500;5.494;2023-03-09T10:09:01;5.70;71.60
70606;DHT22;58173;52.500;5.494;2023-03-09T10:11:56;5.70;71.20
70606;DHT22;58173;52.500;5.494;2023-03-09T10:14:37;5.70;71.20
70606;DHT22;58173;52.500;5.494;2023-03-09T10:17:11;5.80;71.10
70606;DHT22;58173;52.500;5.494;2023-03-09T10:19:40;5.80;70.50
70606;DHT22;58173;52.500;5.494;2023-03-09T10:22:24;5.80;70.50
70606;DHT22;58173;52.500;5.494;2023-03-09T10:24:55;5.80;70.40
70606;DHT22;58173;52.500;5.494;2023-03-09T10:27:37;5.80;70.00
70606;DHT22;58173;52.500;5.494;2023-03-09T10:35:43;5.80;70.00
70606;DHT22;58173;52.500;5.494;2023-03-09T10:38:15;5.80;70.00
70606;DHT22;58173;52.500;5.494;2023-03-09T10:43:29;5.80;69.90
70606;DHT22;58173;52.500;5.494;2023-03-09T10:46:17;5.80;69.90
70606;DHT22;58173;52.500;5.494;2023-03-09T10:48:47;5.90;70.00
70606;DHT22;58173;52.500;5.494;2023-03-09T10:53:53;6.00;70.10
70606;DHT22;58173;52.500;5.494;2023-03-09T11:04:30;6.00;69.60
70606;DHT22;58173;52.500;5.494;2023-03-09T11:07:04;6.10;69.50
70606;DHT22;58173;52.500;5.494;2023-03-09T11:12:29;6.10;69.40
70606;DHT22;58173;52.500;5.494;2023-03-09T11:14:59;6.10;69.50
70606;DHT22;58173;52.500;5.494;2023-03-09T11:17:41;6.10;69.10
70606;DHT22;58173;52.500;5.494;2023-03-09T11:22:52;6.10;68.90
70606;DHT22;58173;52.500;5.494;2023-03-09T11:25:45;6.10;69.10
70606;DHT22;58173;52.500;5.494;2023-03-09T11:30:52;6.10;69.10
70606;DHT22;58173;52.500;5.494;2023-03-09T11:33:20;6.10;69.20
70606;DHT22;58173;52.500;5.494;2023-03-09T11:35:51;6.10;69.10
70606;DHT22;58173;52.500;5.494;2023-03-09T11:38:19;6.00;69.40
70606;DHT22;58173;52.500;5.494;2023-03-09T11:40:49;6.00;69.40
70606;DHT22;58173;52.500;5.494;2023-03-09T11:43:27;6.10;70.50
70606;DHT22;58173;52.500;5.494;2023-03-09T11:46:01;6.10;69.60
70606;DHT22;58173;52.500;5.494;2023-03-09T11:48:34;6.20;69.70
70606;DHT22;58173;52.500;5.494;2023-03-09T11:53:49;6.20;69.20
70606;DHT22;58173;52.500;5.494;2023-03-09T11:56:35;6.20;69.20
70606;DHT22;58173;52.500;5.494;2023-03-09T12:04:22;6.30;69.20
70606;DHT22;58173;52.500;5.494;2023-03-09T12:07:16;6.30;69.30
70606;DHT22;58173;52.500;5.494;2023-03-09T12:10:06;6.30;69.10
70606;DHT22;58173;52.500;5.494;2023-03-09T12:15:33;6.40;68.90
70606;DHT22;58173;52.500;5.494;2023-03-09T12:18:04;6.30;69.10
70606;DHT22;58173;52.500;5.494;2023-03-09T12:20:38;6.40;69.50
70606;DHT22;58173;52.500;5.494;2023-03-09T12:31:35;6.50;70.30
70606;DHT22;58173;52.500;5.494;2023-03-09T12:36:37;6.60;70.40
70606;DHT22;58173;52.500;5.494;2023-03-09T12:49:52;6.60;70.40
70606;DHT22;58173;52.500;5.494;2023-03-09T13:03:29;6.50;71.00
70606;DHT22;58173;52.500;5.494;2023-03-09T13:06:00;6.50;71.10
70606;DHT22;58173;52.500;5.494;2023-03-09T13:08:35;6.60;71.00
70606;DHT22;58173;52.500;5.494;2023-03-09T13:13:47;6.50;70.80
70606;DHT22;58173;52.500;5.494;2023-03-09T13:24:19;6.50;72.40
70606;DHT22;58173;52.500;5.494;2023-03-09T13:26:49;6.50;72.30
70606;DHT22;58173;52.500;5.494;2023-03-09T13:29:21;6.50;72.30
70606;DHT22;58173;52.500;5.494;2023-03-09T13:31:48;6.50;73.30
70606;DHT22;58173;52.500;5.494;2023-03-09T13:34:24;6.40;72.40
70606;DHT22;58173;52.500;5.494;2023-03-09T13:36:54;6.40;72.50
70606;DHT22;58173;52.500;5.494;2023-03-09T13:39:23;6.50;72.70
70606;DHT22;58173;52.500;5.494;2023-03-09T13:41:52;6.50;72.60
70606;DHT22;58173;52.500;5.494;2023-03-09T13:44:21;6.50;72.70
70606;DHT22;58173;52.500;5.494;2023-03-09T13:46:51;6.50;72.70
70606;DHT22;58173;52.500;5.494;2023-03-09T13:52:04;6.50;73.00
70606;DHT22;58173;52.500;5.494;2023-03-09T13:54:52;6.50;73.00
70606;DHT22;58173;52.500;5.494;2023-03-09T13:57:31;6.50;73.20
70606;DHT22;58173;52.500;5.494;2023-03-09T14:00:22;6.40;73.30
70606;DHT22;58173;52.500;5.494;2023-03-09T14:02:49;6.40;73.30
70606;DHT22;58173;52.500;5.494;2023-03-09T14:05:17;6.40;73.40
70606;DHT22;58173;52.500;5.494;2023-03-09T14:08:05;6.40;73.30
70606;DHT22;58173;52.500;5.494;2023-03-09T14:10:39;6.40;73.40
70606;DHT22;58173;52.500;5.494;2023-03-09T14:13:16;6.30;73.40
70606;DHT22;58173;52.500;5.494;2023-03-09T14:16:07;6.30;73.30
70606;DHT22;58173;52.500;5.494;2023-03-09T14:18:42;6.30;73.60
70606;DHT22;58173;52.500;5.494;2023-03-09T14:21:23;6.30;73.70
70606;DHT22;58173;52.500;5.494;2023-03-09T14:23:52;6.30;73.80
70606;DHT22;58173;52.500;5.494;2023-03-09T14:26:24;6.20;73.90
70606;DHT22;58173;52.500;5.494;2023-03-09T14:29:22;6.20;74.10
70606;DHT22;58173;52.500;5.494;2023-03-09T14:34:45;6.20;74.30
70606;DHT22;58173;52.500;5.494;2023-03-09T14:39:52;6.20;74.80
70606;DHT22;58173;52.500;5.494;2023-03-09T14:47:26;6.20;75.00
70606;DHT22;58173;52.500;5.494;2023-03-09T14:49:54;6.10;75.00
70606;DHT22;58173;52.500;5.494;2023-03-09T14:52:22;6.10;75.10
70606;DHT22;58173;52.500;5.494;2023-03-09T14:54:51;6.10;75.20
70606;DHT22;58173;52.500;5.494;2023-03-09T14:57:18;6.10;75.40
70606;DHT22;58173;52.500;5.494;2023-03-09T14:59:45;6.10;75.20
70606;DHT22;58173;52.500;5.494;2023-03-09T15:02:14;6.10;75.30
70606;DHT22;58173;52.500;5.494;2023-03-09T15:04:43;6.10;75.30
70606;DHT22;58173;52.500;5.494;2023-03-09T15:07:13;6.00;75.20
70606;DHT22;58173;52.500;5.494;2023-03-09T15:09:41;6.00;75.30
70606;DHT22;58173;52.500;5.494;2023-03-09T15:12:13;6.00;75.60
70606;DHT22;58173;52.500;5.494;2023-03-09T15:14:45;6.00;75.60
70606;DHT22;58173;52.500;5.494;2023-03-09T15:17:14;5.90;75.50
70606;DHT22;58173;52.500;5.494;2023-03-09T15:19:41;5.90;76.00
70606;DHT22;58173;52.500;5.494;2023-03-09T15:22:14;5.90;76.00
70606;DHT22;58173;52.500;5.494;2023-03-09T15:24:42;6.00;76.10
70606;DHT22;58173;52.500;5.494;2023-03-09T15:27:09;6.00;76.10
70606;DHT22;58173;52.500;5.494;2023-03-09T15:29:37;6.00;76.00
70606;DHT22;58173;52.500;5.494;2023-03-09T15:32:05;6.10;76.00
70606;DHT22;58173;52.500;5.494;2023-03-09T15:34:38;6.00;75.80
70606;DHT22;58173;52.500;5.494;2023-03-09T15:37:05;6.00;76.00
70606;DHT22;58173;52.500;5.494;2023-03-09T15:39:33;6.00;76.00
70606;DHT22;58173;52.500;5.494;2023-03-09T15:42:00;6.00;76.10
70606;DHT22;58173;52.500;5.494;2023-03-09T15:44:27;6.00;76.00
70606;DHT22;58173;52.500;5.494;2023-03-09T15:46:58;6.00;75.80
70606;DHT22;58173;52.500;5.494;2023-03-09T15:49:25;6.00;76.00
70606;DHT22;58173;52.500;5.494;2023-03-09T15:51:52;5.90;76.00
70606;DHT22;58173;52.500;5.494;2023-03-09T15:54:19;5.90;76.00
70606;DHT22;58173;52.500;5.494;2023-03-09T15:56:46;5.90;76.00
70606;DHT22;58173;52.500;5.494;2023-03-09T15:59:12;5.90;76.10
70606;DHT22;58173;52.500;5.494;2023-03-09T16:01:39;5.80;76.10
70606;DHT22;58173;52.500;5.494;2023-03-09T16:04:11;5.80;76.20
70606;DHT22;58173;52.500;5.494;2023-03-09T16:06:39;5.80;76.40
70606;DHT22;58173;52.500;5.494;2023-03-09T16:09:06;5.80;76.30
70606;DHT22;58173;52.500;5.494;2023-03-09T16:11:33;5.80;76.20
70606;DHT22;58173;52.500;5.494;2023-03-09T16:14:00;5.80;76.20
70606;DHT22;58173;52.500;5.494;2023-03-09T16:16:27;5.80;76.30
70606;DHT22;58173;52.500;5.494;2023-03-09T16:18:55;5.70;76.50
70606;DHT22;58173;52.500;5.494;2023-03-09T16:21:22;5.80;76.40
70606;DHT22;58173;52.500;5.494;2023-03-09T16:23:48;5.70;76.40
70606;DHT22;58173;52.500;5.494;2023-03-09T16:26:17;5.60;76.50
70606;DHT22;58173;52.500;5.494;2023-03-09T16:28:44;5.60;76.60
70606;DHT22;58173;52.500;5.494;2023-03-09T16:31:16;5.50;76.80
70606;DHT22;58173;52.500;5.494;2023-03-09T16:33:43;5.50;76.80
70606;DHT22;58173;52.500;5.494;2023-03-09T16:36:11;5.40;76.80
70606;DHT22;58173;52.500;5.494;2023-03-09T16:38:37;5.40;76.90
70606;DHT22;58173;52.500;5.494;2023-03-09T16:41:09;5.30;77.00
70606;DHT22;58173;52.500;5.494;2023-03-09T16:43:37;5.20;77.10
70606;DHT22;58173;52.500;5.494;2023-03-09T16:46:05;5.20;77.30
70606;DHT22;58173;52.500;5.494;2023-03-09T16:48:32;5.10;77.20
70606;DHT22;58173;52.500;5.494;2023-03-09T16:51:01;5.10;77.50
70606;DHT22;58173;52.500;5.494;2023-03-09T16:53:30;5.00;77.50
70606;DHT22;58173;52.500;5.494;2023-03-09T16:56:02;5.00;77.60
70606;DHT22;58173;52.500;5.494;2023-03-09T16:58:30;4.90;77.70
70606;DHT22;58173;52.500;5.494;2023-03-09T17:00:58;4.90;77.60
70606;DHT22;58173;52.500;5.494;2023-03-09T17:03:26;4.90;77.40
70606;DHT22;58173;52.500;5.494;2023-03-09T17:05:53;4.80;77.00
70606;DHT22;58173;52.500;5.494;2023-03-09T17:08:20;4.80;76.60
70606;DHT22;58173;52.500;5.494;2023-03-09T17:10:48;4.70;76.40
70606;DHT22;58173;52.500;5.494;2023-03-09T17:13:15;4.60;76.40
70606;DHT22;58173;52.500;5.494;2023-03-09T17:15:42;4.60;76.60
70606;DHT22;58173;52.500;5.494;2023-03-09T17:18:09;4.60;76.70
70606;DHT22;58173;52.500;5.494;2023-03-09T17:20:36;4.50;76.60
70606;DHT22;58173;52.500;5.494;2023-03-09T17:23:03;4.50;76.80
70606;DHT22;58173;52.500;5.494;2023-03-09T17:25:30;4.40;76.80
70606;DHT22;58173;52.500;5.494;2023-03-09T17:27:58;4.40;76.90
70606;DHT22;58173;52.500;5.494;2023-03-09T17:30:25;4.30;77.10
70606;DHT22;58173;52.500;5.494;2023-03-09T17:33:11;4.30;77.30
70606;DHT22;58173;52.500;5.494;2023-03-09T17:35:39;4.30;77.40
70606;DHT22;58173;52.500;5.494;2023-03-09T17:38:06;4.20;77.70
70606;DHT22;58173;52.500;5.494;2023-03-09T17:40:45;4.20;77.70
70606;DHT22;58173;52.500;5.494;2023-03-09T17:43:12;4.20;77.60
70606;DHT22;58173;52.500;5.494;2023-03-09T17:45:40;4.10;77.80
70606;DHT22;58173;52.500;5.494;2023-03-09T17:48:07;4.10;78.00
70606;DHT22;58173;52.500;5.494;2023-03-09T17:50:35;4.10;78.20